createdAt,value
2019-02-28T00:01:34.889Z,4.40
2019-02-28T00:04:05.731Z,4.20
2019-02-28T00:06:38.106Z,4.20
2019-02-28T00:09:10.346Z,4.10
2019-02-28T00:11:40.214Z,4.10
2019-02-28T00:14:09.495Z,4.10
2019-02-28T00:16:38.713Z,4.10
2019-02-28T00:19:09.654Z,4.20
2019-02-28T00:21:40.560Z,4.30
2019-02-28T00:24:11.036Z,4.40
2019-02-28T00:26:46.318Z,4.60
2019-02-28T00:29:15.784Z,5.00
2019-02-28T00:31:50.181Z,5.50
2019-02-28T00:34:20.801Z,6.00
2019-02-28T00:36:53.406Z,6.30
2019-02-28T00:39:23.456Z,6.50
2019-02-28T00:41:53.434Z,6.70
2019-02-28T00:44:23.098Z,6.80
2019-02-28T00:46:55.246Z,6.90
2019-02-28T00:49:27.602Z,6.90
2019-02-28T00:51:57.411Z,7.00
2019-02-28T00:54:27.843Z,7.00
2019-02-28T00:56:57.789Z,7.10
2019-02-28T00:59:31.718Z,7.20
2019-02-28T01:02:00.554Z,7.30
2019-02-28T01:04:30.899Z,7.30
2019-02-28T01:07:01.908Z,7.40
2019-02-28T01:09:31.791Z,7.30
2019-02-28T01:12:03.351Z,7.30
2019-02-28T01:14:35.810Z,7.30
2019-02-28T01:17:06.360Z,7.30
2019-02-28T01:19:36.529Z,7.40
2019-02-28T01:22:07.642Z,7.40
2019-02-28T01:24:37.387Z,7.40
2019-02-28T01:27:10.281Z,7.40
2019-02-28T01:29:41.098Z,7.50
2019-02-28T01:32:15.682Z,7.40
2019-02-28T01:34:44.963Z,7.40
2019-02-28T01:37:14.873Z,7.40
2019-02-28T01:39:45.401Z,7.30
2019-02-28T01:42:16.297Z,7.20
2019-02-28T01:44:46.561Z,7.20
2019-02-28T01:47:20.005Z,7.20
2019-02-28T01:49:49.375Z,7.10
2019-02-28T01:52:20.320Z,7.10
2019-02-28T01:54:51.191Z,7.20
2019-02-28T01:57:22.034Z,7.10
2019-02-28T01:59:54.054Z,7.00
2019-02-28T02:02:24.982Z,7.00
2019-02-28T02:04:54.245Z,6.90
2019-02-28T02:07:25.340Z,6.70
2019-02-28T02:09:57.590Z,6.70
2019-02-28T02:12:31.197Z,6.70
2019-02-28T02:15:00.655Z,6.60
2019-02-28T02:17:32.273Z,6.50
2019-02-28T02:20:03.811Z,6.40
2019-02-28T02:22:33.158Z,6.20
2019-02-28T02:25:05.506Z,6.10
2019-02-28T02:27:36.551Z,6.00
2019-02-28T02:30:15.066Z,6.00
2019-02-28T02:32:42.496Z,6.10
2019-02-28T02:35:13.785Z,6.20
2019-02-28T02:37:44.619Z,6.20
2019-02-28T02:40:18.020Z,6.20
2019-02-28T02:42:49.715Z,6.30
2019-02-28T02:45:20.408Z,6.30
2019-02-28T02:47:51.348Z,6.40
2019-02-28T02:50:23.983Z,6.50
2019-02-28T02:52:53.871Z,6.80
2019-02-28T02:55:27.773Z,7.00
2019-02-28T02:57:57.354Z,7.20
2019-02-28T03:00:27.123Z,7.20
2019-02-28T03:02:56.383Z,7.20
2019-02-28T03:05:26.226Z,7.20
2019-02-28T03:07:59.450Z,7.20
2019-02-28T03:10:28.171Z,7.10
2019-02-28T03:13:04.923Z,7.00
2019-02-28T03:15:31.807Z,6.90
2019-02-28T03:18:02.643Z,6.90
2019-02-28T03:20:33.686Z,6.90
2019-02-28T03:23:03.297Z,6.70
2019-02-28T03:25:33.443Z,6.70
2019-02-28T03:28:04.681Z,6.70
2019-02-28T03:30:35.895Z,6.60
2019-02-28T03:33:05.877Z,6.60
2019-02-28T03:35:42.962Z,6.70
2019-02-28T03:38:11.677Z,6.70
2019-02-28T03:40:40.238Z,6.90
2019-02-28T03:43:09.718Z,7.00
2019-02-28T03:45:40.981Z,7.10
2019-02-28T03:48:10.878Z,7.10
2019-02-28T03:50:41.849Z,7.20
2019-02-28T03:53:11.724Z,7.20
2019-02-28T03:55:42.674Z,7.10
2019-02-28T03:58:13.139Z,7.10
2019-02-28T04:00:42.504Z,7.10
2019-02-28T04:03:12.635Z,7.00
2019-02-28T04:05:42.280Z,6.90
2019-02-28T04:08:12.221Z,6.80
2019-02-28T04:10:42.012Z,6.90
2019-02-28T04:13:19.210Z,6.90
2019-02-28T04:16:07.418Z,6.90
2019-02-28T04:18:48.579Z,7.00
2019-02-28T04:21:18.286Z,7.10
2019-02-28T04:23:52.697Z,7.00
2019-02-28T04:26:22.727Z,7.00
2019-02-28T04:31:44.692Z,7.30
2019-02-28T04:34:17.021Z,7.60
2019-02-28T04:36:50.095Z,7.70
2019-02-28T04:39:22.714Z,7.80
2019-02-28T04:41:51.019Z,7.90
2019-02-28T04:44:20.908Z,7.90
2019-02-28T04:46:50.711Z,8.00
2019-02-28T04:49:22.671Z,8.10
2019-02-28T04:51:53.913Z,8.10
2019-02-28T04:54:27.923Z,8.10
2019-02-28T04:56:57.595Z,8.00
2019-02-28T04:59:31.607Z,8.00
2019-02-28T05:02:02.787Z,7.80
2019-02-28T05:04:33.225Z,7.80
2019-02-28T05:07:06.426Z,7.70
2019-02-28T05:09:38.762Z,7.80
2019-02-28T05:12:09.487Z,7.90
2019-02-28T05:14:42.605Z,7.90
2019-02-28T05:17:13.570Z,7.90
2019-02-28T05:19:46.439Z,7.90
2019-02-28T05:22:20.654Z,8.00
2019-02-28T05:24:50.538Z,8.00
2019-02-28T05:28:14.767Z,7.90
2019-02-28T05:30:44.098Z,7.80
2019-02-28T05:33:15.059Z,7.80
2019-02-28T05:35:45.932Z,7.80
2019-02-28T05:38:20.635Z,7.80
2019-02-28T05:40:48.194Z,7.70
2019-02-28T05:43:19.730Z,7.70
2019-02-28T05:45:51.188Z,7.70
2019-02-28T05:48:21.096Z,7.70
2019-02-28T05:50:53.315Z,7.70
2019-02-28T05:53:24.666Z,7.80
2019-02-28T05:55:58.827Z,7.80
2019-02-28T05:58:27.633Z,7.80
2019-02-28T06:00:57.507Z,7.80
2019-02-28T06:03:31.577Z,7.80
2019-02-28T06:06:02.729Z,7.80
2019-02-28T06:08:39.199Z,7.90
2019-02-28T06:11:08.389Z,8.00
2019-02-28T06:13:41.355Z,8.00
2019-02-28T06:16:13.860Z,8.20
2019-02-28T06:18:43.707Z,8.30
2019-02-28T06:21:13.635Z,8.40
2019-02-28T06:23:44.663Z,8.50
2019-02-28T06:26:15.567Z,8.60
2019-02-28T06:28:46.567Z,8.70
2019-02-28T06:31:17.590Z,8.90
2019-02-28T06:33:47.444Z,9.00
2019-02-28T06:36:18.337Z,9.10
2019-02-28T06:38:48.333Z,9.20
2019-02-28T06:41:19.261Z,9.20
2019-02-28T06:43:52.869Z,9.30
2019-02-28T06:46:22.687Z,9.20
2019-02-28T06:48:52.520Z,9.10
2019-02-28T06:51:23.440Z,8.90
2019-02-28T06:53:56.522Z,8.70
2019-02-28T06:56:27.486Z,8.60
2019-02-28T06:58:57.358Z,8.60
2019-02-28T07:01:29.478Z,8.60
2019-02-28T07:04:00.975Z,8.60
2019-02-28T07:06:35.630Z,8.80
2019-02-28T07:09:03.512Z,8.90
2019-02-28T07:11:37.823Z,8.90
2019-02-28T07:14:12.919Z,9.10
2019-02-28T07:16:40.359Z,9.10
2019-02-28T07:19:11.154Z,9.00
2019-02-28T07:21:43.921Z,9.20
2019-02-28T07:24:14.611Z,9.20
2019-02-28T07:26:48.265Z,9.20
2019-02-28T07:29:18.451Z,9.30
2019-02-28T07:31:48.180Z,9.40
2019-02-28T07:34:21.914Z,9.50
2019-02-28T07:36:51.693Z,9.50
2019-02-28T07:39:25.584Z,9.60
2019-02-28T07:41:55.435Z,9.50
2019-02-28T07:44:25.302Z,9.70
2019-02-28T07:46:55.145Z,9.80
2019-02-28T07:49:26.010Z,10.00
2019-02-28T07:51:56.964Z,10.10
2019-02-28T07:54:28.508Z,10.10
2019-02-28T07:56:59.589Z,10.20
2019-02-28T07:59:40.971Z,10.20
2019-02-28T08:02:08.601Z,10.30
2019-02-28T08:04:40.807Z,10.30
2019-02-28T08:07:11.435Z,10.30
2019-02-28T08:09:45.302Z,10.40
2019-02-28T08:12:16.252Z,10.50
2019-02-28T08:14:47.029Z,10.60
2019-02-28T08:17:17.751Z,10.60
2019-02-28T08:19:47.731Z,10.70
2019-02-28T08:22:23.219Z,10.80
2019-02-28T08:24:49.832Z,10.90
2019-02-28T08:27:19.689Z,11.00
2019-02-28T08:29:50.548Z,11.20
2019-02-28T08:32:20.469Z,11.20
2019-02-28T08:34:51.489Z,11.40
2019-02-28T08:37:22.696Z,12.60
2019-02-28T08:39:53.735Z,13.70
2019-02-28T08:42:24.798Z,14.40
2019-02-28T08:44:58.975Z,14.90
2019-02-28T08:47:29.196Z,15.10
2019-02-28T08:49:58.948Z,15.50
2019-02-28T08:52:29.882Z,15.50
2019-02-28T08:54:59.680Z,15.90
2019-02-28T08:57:30.732Z,15.80
2019-02-28T09:00:01.625Z,16.00
2019-02-28T09:02:34.119Z,15.90
2019-02-28T09:05:06.662Z,16.10
2019-02-28T09:07:36.838Z,15.90
2019-02-28T09:10:18.456Z,15.70
2019-02-28T09:12:49.618Z,15.90
2019-02-28T09:15:21.456Z,15.90
2019-02-28T09:17:51.420Z,15.90
2019-02-28T09:20:24.467Z,15.80
2019-02-28T09:23:01.797Z,15.30
2019-02-28T09:25:28.826Z,14.30
2019-02-28T09:27:58.652Z,13.90
2019-02-28T09:30:45.939Z,13.60
2019-02-28T09:33:19.241Z,13.60
2019-02-28T09:35:49.745Z,13.50
2019-02-28T09:38:21.943Z,13.50
2019-02-28T09:40:52.787Z,13.60
2019-02-28T09:43:25.867Z,13.80
2019-02-28T09:45:59.033Z,14.20
2019-02-28T09:48:30.680Z,14.60
2019-02-28T09:51:00.452Z,14.80
2019-02-28T09:53:33.438Z,14.70
2019-02-28T09:56:09.335Z,14.30
2019-02-28T09:58:40.311Z,14.20
2019-02-28T10:01:11.498Z,14.10
2019-02-28T10:03:42.566Z,14.20
2019-02-28T10:06:16.186Z,14.20
2019-02-28T10:08:45.051Z,14.40
2019-02-28T10:11:21.695Z,14.90
2019-02-28T10:13:53.171Z,15.20
2019-02-28T10:16:23.999Z,15.30
2019-02-28T10:18:53.748Z,15.20
2019-02-28T10:21:28.030Z,15.00
2019-02-28T10:23:57.940Z,15.20
2019-02-28T10:26:29.315Z,15.90
2019-02-28T10:29:04.428Z,16.40
2019-02-28T10:31:36.411Z,16.70
2019-02-28T10:34:07.566Z,16.50
2019-02-28T10:36:38.770Z,16.00
2019-02-28T10:39:09.723Z,15.80
2019-02-28T10:41:39.671Z,15.70
2019-02-28T10:44:09.611Z,15.70
2019-02-28T10:46:42.429Z,16.10
2019-02-28T10:49:12.194Z,16.70
2019-02-28T10:51:44.611Z,17.20
2019-02-28T10:54:15.395Z,17.40
2019-02-28T10:56:46.463Z,17.60
2019-02-28T10:59:16.556Z,17.60
2019-02-28T11:01:48.054Z,17.90
2019-02-28T11:04:21.006Z,18.00
2019-02-28T11:06:52.126Z,18.30
2019-02-28T11:09:25.377Z,18.60
2019-02-28T11:11:54.651Z,19.20
2019-02-28T11:14:24.701Z,19.60
2019-02-28T11:16:59.078Z,20.00
2019-02-28T11:19:26.644Z,20.10
2019-02-28T11:21:57.519Z,20.20
2019-02-28T11:24:27.408Z,20.20
2019-02-28T11:26:57.379Z,20.40
2019-02-28T11:29:27.399Z,20.50
2019-02-28T11:31:59.022Z,20.80
2019-02-28T11:34:30.009Z,21.00
2019-02-28T11:37:01.027Z,20.50
2019-02-28T11:39:33.662Z,20.30
2019-02-28T11:42:04.919Z,20.70
2019-02-28T11:44:35.944Z,20.60
2019-02-28T11:47:08.408Z,20.90
2019-02-28T11:49:38.077Z,21.20
2019-02-28T11:52:12.334Z,21.60
2019-02-28T11:54:41.730Z,21.30
2019-02-28T11:57:12.837Z,21.70
2019-02-28T11:59:45.250Z,22.10
2019-02-28T12:02:16.267Z,22.20
2019-02-28T12:04:46.444Z,22.40
2019-02-28T12:07:16.243Z,21.90
2019-02-28T12:09:47.409Z,22.50
2019-02-28T12:12:19.946Z,22.50
2019-02-28T12:14:49.990Z,22.30
2019-02-28T12:17:19.756Z,22.30
2019-02-28T12:19:50.758Z,22.30
2019-02-28T12:22:21.178Z,22.50
2019-02-28T12:24:55.270Z,22.70
2019-02-28T12:27:27.461Z,22.40
2019-02-28T12:29:58.009Z,22.00
2019-02-28T12:32:29.180Z,22.20
2019-02-28T12:35:01.487Z,22.10
2019-02-28T12:37:31.480Z,22.00
2019-02-28T12:40:04.051Z,21.90
2019-02-28T12:42:34.589Z,22.00
2019-02-28T12:45:06.746Z,22.30
2019-02-28T12:47:38.694Z,22.50
2019-02-28T12:50:13.278Z,22.30
2019-02-28T12:52:49.027Z,22.60
2019-02-28T12:55:18.144Z,23.30
2019-02-28T12:57:51.771Z,23.90
2019-02-28T13:00:25.409Z,23.40
2019-02-28T13:02:56.454Z,23.40
2019-02-28T13:05:28.080Z,23.60
2019-02-28T13:07:59.415Z,24.20
2019-02-28T13:10:31.123Z,23.30
2019-02-28T13:13:06.653Z,23.20
2019-02-28T13:15:36.302Z,22.70
2019-02-28T13:18:09.373Z,22.50
2019-02-28T13:20:41.056Z,22.50
2019-02-28T13:23:11.063Z,22.10
2019-02-28T13:25:42.182Z,21.70
2019-02-28T13:28:13.129Z,21.70
2019-02-28T13:30:48.969Z,22.40
2019-02-28T13:33:16.208Z,23.00
2019-02-28T13:35:47.595Z,22.80
2019-02-28T13:38:19.321Z,22.60
2019-02-28T13:40:50.449Z,22.60
2019-02-28T13:43:22.289Z,23.00
2019-02-28T13:45:55.670Z,23.00
2019-02-28T13:48:26.491Z,23.20
2019-02-28T13:50:59.404Z,22.90
2019-02-28T13:53:30.517Z,22.40
2019-02-28T13:56:05.009Z,22.00
2019-02-28T13:58:35.037Z,22.10
2019-02-28T14:01:07.159Z,22.10
2019-02-28T14:03:37.095Z,22.00
2019-02-28T14:06:07.088Z,22.10
2019-02-28T14:08:38.372Z,21.70
2019-02-28T14:11:10.327Z,22.10
2019-02-28T14:13:41.969Z,22.40
2019-02-28T14:16:15.189Z,22.10
2019-02-28T14:18:46.768Z,21.70
2019-02-28T14:21:17.723Z,21.50
2019-02-28T14:23:52.495Z,21.30
2019-02-28T14:26:25.946Z,21.00
2019-02-28T14:28:58.520Z,20.90
2019-02-28T14:31:29.571Z,20.80
2019-02-28T14:34:01.984Z,20.70
2019-02-28T14:36:33.682Z,21.00
2019-02-28T14:39:04.747Z,21.30
2019-02-28T14:41:35.521Z,21.00
2019-02-28T14:44:08.438Z,20.60
2019-02-28T14:46:40.733Z,19.90
2019-02-28T14:49:13.999Z,19.40
2019-02-28T14:51:46.385Z,20.00
2019-02-28T14:54:17.625Z,20.10
2019-02-28T14:56:48.506Z,20.40
2019-02-28T14:59:18.319Z,20.00
2019-02-28T15:01:49.556Z,19.80
2019-02-28T15:04:22.431Z,19.40
2019-02-28T15:06:53.594Z,18.40
2019-02-28T15:09:27.099Z,17.50
2019-02-28T15:11:59.971Z,16.60
2019-02-28T15:14:31.045Z,15.90
2019-02-28T15:17:06.615Z,15.50
2019-02-28T15:19:34.052Z,15.10
2019-02-28T15:22:08.311Z,15.00
2019-02-28T15:24:40.519Z,14.80
2019-02-28T15:27:13.436Z,14.70
2019-02-28T15:29:45.783Z,14.60
2019-02-28T15:32:17.093Z,14.60
2019-02-28T15:34:47.178Z,14.40
2019-02-28T15:37:18.176Z,14.30
2019-02-28T15:39:49.825Z,14.20
2019-02-28T15:42:20.619Z,13.90
2019-02-28T15:44:50.497Z,13.70
2019-02-28T15:47:23.119Z,13.60
2019-02-28T15:49:54.312Z,13.40
2019-02-28T15:52:25.581Z,13.30
2019-02-28T15:54:56.897Z,13.20
2019-02-28T15:57:30.142Z,13.10
2019-02-28T16:00:00.634Z,13.00
2019-02-28T16:02:30.542Z,12.90
2019-02-28T16:05:05.213Z,12.80
2019-02-28T16:07:35.717Z,12.80
2019-02-28T16:10:08.911Z,12.60
2019-02-28T16:12:38.852Z,12.50
2019-02-28T16:15:12.641Z,12.50
2019-02-28T16:17:42.033Z,12.40
2019-02-28T16:20:15.668Z,12.40
2019-02-28T16:22:52.089Z,12.30
2019-02-28T16:25:34.123Z,12.20
2019-02-28T16:28:04.376Z,12.20
2019-02-28T16:30:35.616Z,12.10
2019-02-28T16:33:07.567Z,12.10
2019-02-28T16:35:40.368Z,12.00
2019-02-28T16:38:11.261Z,11.90
2019-02-28T16:40:42.650Z,11.90
2019-02-28T16:43:13.862Z,11.90
2019-02-28T16:45:50.935Z,11.90
2019-02-28T16:48:23.031Z,11.90
2019-02-28T16:50:53.679Z,11.80
2019-02-28T16:53:25.425Z,11.70
2019-02-28T16:55:56.725Z,11.70
2019-02-28T16:58:29.023Z,11.60
2019-02-28T17:01:01.127Z,11.60
2019-02-28T17:03:33.322Z,11.50
2019-02-28T17:06:03.784Z,11.50
2019-02-28T17:08:36.172Z,11.40
2019-02-28T17:11:09.164Z,11.40
2019-02-28T17:13:41.566Z,11.40
2019-02-28T17:16:33.678Z,11.40
2019-02-28T17:19:05.038Z,11.40
2019-02-28T17:21:37.431Z,11.30
2019-02-28T17:24:08.606Z,11.30
2019-02-28T17:26:57.665Z,11.30
2019-02-28T17:29:31.354Z,11.20
2019-02-28T17:32:02.146Z,11.20
2019-02-28T17:34:33.047Z,11.20
2019-02-28T17:37:03.807Z,11.10
2019-02-28T17:39:34.001Z,11.00
2019-02-28T17:42:08.651Z,11.00
2019-02-28T17:44:44.635Z,11.00
2019-02-28T17:47:36.688Z,11.00
2019-02-28T17:50:15.088Z,11.00
2019-02-28T17:52:53.508Z,10.90
2019-02-28T17:55:37.367Z,10.90
2019-02-28T17:58:19.772Z,10.90
2019-02-28T18:01:20.750Z,10.90
2019-02-28T18:04:24.062Z,10.80
2019-02-28T18:07:20.030Z,10.90
2019-02-28T18:09:55.079Z,10.90
2019-02-28T18:13:00.595Z,10.80
2019-02-28T18:15:36.472Z,10.80
2019-02-28T18:18:18.043Z,10.80
2019-02-28T18:20:54.056Z,10.70
2019-02-28T18:23:44.582Z,10.60
2019-02-28T18:26:39.325Z,10.50
2019-02-28T18:29:24.297Z,10.50
2019-02-28T18:31:57.064Z,10.40
2019-02-28T18:34:28.201Z,10.40
2019-02-28T18:36:58.995Z,10.40
2019-02-28T18:39:49.333Z,10.30
2019-02-28T18:42:20.596Z,10.30
2019-02-28T18:44:51.422Z,10.20
2019-02-28T18:47:22.749Z,10.10
2019-02-28T18:49:52.628Z,10.10
2019-02-28T18:52:24.025Z,10.10
2019-02-28T18:54:55.000Z,10.20
2019-02-28T18:57:26.295Z,10.10
2019-02-28T18:59:56.562Z,10.10
2019-02-28T19:02:27.472Z,10.10
2019-02-28T19:04:57.263Z,10.00
2019-02-28T19:07:28.591Z,10.00
2019-02-28T19:09:59.697Z,9.90
2019-02-28T19:12:30.592Z,9.90
2019-02-28T19:15:00.370Z,9.90
2019-02-28T19:17:30.971Z,9.90
2019-02-28T19:20:00.915Z,9.80
2019-02-28T19:22:33.144Z,9.70
2019-02-28T19:25:04.055Z,9.70
2019-02-28T19:27:39.410Z,9.70
2019-02-28T19:30:17.850Z,9.60
2019-02-28T19:32:48.717Z,9.60
2019-02-28T19:35:20.890Z,9.50
2019-02-28T19:37:53.610Z,9.50
2019-02-28T19:40:23.474Z,9.50
2019-02-28T19:42:54.360Z,9.40
2019-02-28T19:45:38.715Z,9.40
2019-02-28T19:48:08.615Z,9.40
2019-02-28T19:50:39.096Z,9.30
2019-02-28T19:53:11.276Z,9.30
2019-02-28T19:55:42.397Z,9.30
2019-02-28T19:58:13.309Z,9.30
2019-02-28T20:00:42.751Z,9.30
2019-02-28T20:03:13.687Z,9.30
2019-02-28T20:05:44.868Z,9.30
2019-02-28T20:08:19.352Z,9.30
2019-02-28T20:10:51.493Z,9.30
2019-02-28T20:13:21.334Z,9.30
2019-02-28T20:15:53.628Z,9.30
2019-02-28T20:18:24.901Z,9.30
2019-02-28T20:20:54.947Z,9.30
2019-02-28T20:23:26.050Z,9.30
2019-02-28T20:25:56.068Z,9.30
2019-02-28T20:28:27.125Z,9.20
2019-02-28T20:30:58.189Z,9.20
2019-02-28T20:33:30.974Z,9.20
2019-02-28T20:36:00.757Z,9.10
2019-02-28T20:38:31.699Z,9.00
2019-02-28T20:41:04.738Z,9.00
2019-02-28T20:43:38.891Z,9.00
2019-02-28T20:46:09.209Z,9.00
2019-02-28T20:48:42.494Z,8.90
2019-02-28T20:51:12.522Z,8.90
2019-02-28T20:53:41.774Z,8.80
2019-02-28T20:56:12.664Z,8.70
2019-02-28T20:58:47.177Z,8.60
2019-02-28T21:01:17.024Z,8.60
2019-02-28T21:03:49.827Z,8.50
2019-02-28T21:06:24.052Z,8.40
2019-02-28T21:08:54.938Z,8.40
2019-02-28T21:11:24.380Z,8.40
2019-02-28T21:13:56.619Z,8.40
2019-02-28T21:16:26.865Z,8.30
2019-02-28T21:18:59.229Z,8.20
2019-02-28T21:21:29.176Z,8.20
2019-02-28T21:24:00.193Z,8.20
2019-02-28T21:26:32.223Z,8.10
2019-02-28T21:29:01.906Z,8.10
2019-02-28T21:31:34.227Z,8.10
2019-02-28T21:34:05.225Z,8.10
2019-02-28T21:36:37.528Z,8.00
2019-02-28T21:39:08.959Z,7.90
2019-02-28T21:41:42.284Z,7.90
2019-02-28T21:44:12.150Z,7.90
2019-02-28T21:46:43.003Z,7.80
2019-02-28T21:49:12.921Z,7.70
2019-02-28T21:51:43.934Z,7.70
2019-02-28T21:54:16.190Z,7.60
2019-02-28T21:56:46.018Z,7.50
2019-02-28T21:59:19.098Z,7.50
2019-02-28T22:01:48.969Z,7.50
2019-02-28T22:04:21.816Z,7.50
2019-02-28T22:06:53.888Z,7.50
2019-02-28T22:09:24.965Z,7.50
2019-02-28T22:11:54.953Z,7.50
2019-02-28T22:14:25.120Z,7.50
2019-02-28T22:20:01.749Z,7.50
2019-02-28T22:22:32.815Z,7.40
2019-02-28T22:25:03.798Z,7.40
2019-02-28T22:33:45.306Z,7.20
2019-02-28T22:36:17.695Z,7.20
2019-02-28T22:38:48.773Z,7.30
2019-02-28T22:41:19.919Z,7.30
2019-02-28T22:43:50.944Z,7.30
2019-02-28T22:46:25.267Z,7.30
2019-02-28T22:48:56.568Z,7.30
2019-02-28T22:51:31.009Z,7.30
2019-02-28T22:54:03.921Z,7.30
2019-02-28T22:56:34.862Z,7.30
2019-02-28T22:59:06.981Z,7.30
2019-02-28T23:01:37.397Z,7.30
2019-02-28T23:04:08.573Z,7.40
2019-02-28T23:06:39.607Z,7.40
2019-02-28T23:09:09.887Z,7.30
2019-02-28T23:11:40.884Z,7.30
2019-02-28T23:14:11.926Z,7.30
2019-02-28T23:16:44.318Z,7.30
2019-02-28T23:19:15.192Z,7.30
2019-02-28T23:21:45.164Z,7.30
2019-02-28T23:24:17.245Z,7.30
2019-02-28T23:27:12.447Z,7.30
2019-02-28T23:29:50.422Z,7.30
2019-02-28T23:32:39.827Z,7.20
2019-02-28T23:35:16.743Z,7.20
2019-02-28T23:37:47.852Z,7.10
2019-02-28T23:40:17.206Z,7.10
2019-02-28T23:42:49.434Z,7.10
2019-02-28T23:45:19.314Z,7.10
2019-02-28T23:47:52.543Z,7.10
2019-02-28T23:50:23.584Z,7.00
2019-02-28T23:52:54.166Z,7.10
2019-02-28T23:55:28.364Z,7.00
2019-02-28T23:57:59.333Z,7.00
